createdAt,value
2017-11-16T00:01:37.423Z,5.10
2017-11-16T00:04:05.291Z,5.10
2017-11-16T00:06:33.158Z,5.10
2017-11-16T00:09:01.026Z,5.10
2017-11-16T00:11:28.892Z,5.10
2017-11-16T00:13:56.759Z,5.20
2017-11-16T00:16:24.629Z,5.20
2017-11-16T00:18:52.495Z,5.20
2017-11-16T00:21:20.363Z,5.20
2017-11-16T00:23:48.233Z,5.20
2017-11-16T00:26:16.098Z,5.30
2017-11-16T00:28:43.963Z,5.40
2017-11-16T00:31:11.831Z,5.40
2017-11-16T00:33:39.698Z,5.40
2017-11-16T00:36:07.565Z,5.50
2017-11-16T00:38:35.432Z,5.50
2017-11-16T00:41:03.300Z,5.60
2017-11-16T00:43:31.167Z,5.60
2017-11-16T00:45:59.039Z,5.60
2017-11-16T00:48:26.902Z,5.60
2017-11-16T00:50:54.769Z,5.60
2017-11-16T00:53:22.637Z,5.60
2017-11-16T00:55:50.503Z,5.70
2017-11-16T00:58:18.371Z,5.70
2017-11-16T01:00:46.241Z,5.70
2017-11-16T01:03:14.106Z,5.80
2017-11-16T01:05:41.973Z,6.00
2017-11-16T01:08:09.840Z,6.00
2017-11-16T01:10:37.710Z,6.00
2017-11-16T01:13:05.576Z,5.90
2017-11-16T01:15:33.443Z,5.90
2017-11-16T01:18:01.314Z,5.90
2017-11-16T01:20:29.179Z,5.90
2017-11-16T01:22:57.045Z,6.00
2017-11-16T01:25:24.911Z,6.00
2017-11-16T01:27:52.779Z,6.10
2017-11-16T01:30:20.651Z,6.30
2017-11-16T01:32:48.519Z,6.30
2017-11-16T01:35:16.383Z,6.40
2017-11-16T01:37:44.251Z,6.50
2017-11-16T01:40:12.121Z,6.60
2017-11-16T01:42:39.988Z,6.50
2017-11-16T01:45:07.854Z,6.40
2017-11-16T01:47:35.837Z,6.50
2017-11-16T01:50:03.791Z,6.50
2017-11-16T01:52:31.663Z,6.60
2017-11-16T01:54:59.524Z,6.50
2017-11-16T01:57:27.391Z,6.10
2017-11-16T01:59:55.266Z,6.00
2017-11-16T02:02:34.903Z,6.00
2017-11-16T02:05:02.773Z,6.00
2017-11-16T02:07:30.637Z,6.10
2017-11-16T02:09:58.508Z,6.10
2017-11-16T02:12:26.371Z,6.10
2017-11-16T02:14:54.240Z,6.20
2017-11-16T02:17:22.106Z,6.30
2017-11-16T02:19:49.975Z,6.10
2017-11-16T02:22:17.842Z,6.00
2017-11-16T02:24:45.810Z,6.00
2017-11-16T02:27:13.677Z,6.10
2017-11-16T02:29:41.545Z,6.30
2017-11-16T02:32:09.417Z,6.50
2017-11-16T02:34:37.281Z,6.50
2017-11-16T02:37:05.152Z,6.60
2017-11-16T02:39:33.120Z,6.70
2017-11-16T02:42:01.086Z,6.40
2017-11-16T02:44:29.057Z,6.10
2017-11-16T02:46:57.026Z,6.00
2017-11-16T02:49:24.894Z,6.00
2017-11-16T02:51:52.864Z,6.00
2017-11-16T02:54:20.833Z,5.80
2017-11-16T02:56:48.803Z,5.80
2017-11-16T02:59:16.670Z,5.90
2017-11-16T03:01:44.538Z,6.00
2017-11-16T03:04:12.421Z,6.00
2017-11-16T03:06:40.271Z,5.90
2017-11-16T03:09:08.242Z,6.00
2017-11-16T03:11:36.109Z,6.10
2017-11-16T03:14:03.976Z,6.20
2017-11-16T03:16:31.844Z,6.20
2017-11-16T03:18:59.751Z,6.20
2017-11-16T03:21:27.578Z,6.10
2017-11-16T03:23:55.446Z,6.10
2017-11-16T03:26:23.312Z,6.00
2017-11-16T03:28:51.183Z,6.00
2017-11-16T03:31:19.049Z,5.90
2017-11-16T03:33:46.914Z,5.80
2017-11-16T03:36:14.781Z,5.70
2017-11-16T03:38:42.649Z,5.70
2017-11-16T03:41:10.516Z,5.70
2017-11-16T03:43:38.383Z,5.90
2017-11-16T03:46:06.251Z,5.80
2017-11-16T03:48:34.117Z,5.80
2017-11-16T03:51:01.986Z,5.90
2017-11-16T03:53:29.857Z,5.90
2017-11-16T03:55:57.721Z,5.90
2017-11-16T03:58:25.587Z,6.10
2017-11-16T04:00:53.455Z,6.20
2017-11-16T04:03:21.323Z,6.10
2017-11-16T04:05:49.196Z,6.00
2017-11-16T04:08:17.058Z,6.00
2017-11-16T04:10:44.924Z,6.10
2017-11-16T04:13:12.793Z,6.20
2017-11-16T04:15:40.662Z,6.30
2017-11-16T04:18:08.531Z,6.40
2017-11-16T04:20:36.394Z,6.50
2017-11-16T04:23:04.262Z,6.40
2017-11-16T04:25:32.128Z,6.20
2017-11-16T04:27:59.995Z,6.00
2017-11-16T04:30:27.864Z,5.70
2017-11-16T04:32:55.730Z,5.80
2017-11-16T04:35:23.598Z,5.90
2017-11-16T04:37:51.466Z,5.70
2017-11-16T04:40:19.331Z,5.70
2017-11-16T04:42:47.204Z,5.70
2017-11-16T04:45:15.071Z,5.60
2017-11-16T04:47:42.935Z,5.70
2017-11-16T04:50:10.806Z,5.70
2017-11-16T04:52:38.672Z,5.70
2017-11-16T04:55:06.541Z,5.60
2017-11-16T04:57:34.407Z,5.60
2017-11-16T05:00:02.272Z,5.70
2017-11-16T05:02:30.139Z,5.70
2017-11-16T05:04:58.005Z,5.70
2017-11-16T05:07:26.763Z,5.60
2017-11-16T05:09:54.665Z,5.70
2017-11-16T05:12:22.529Z,5.60
2017-11-16T05:14:50.399Z,5.50
2017-11-16T05:17:18.267Z,5.40
2017-11-16T05:19:46.132Z,5.30
2017-11-16T05:22:13.998Z,5.40
2017-11-16T05:24:41.865Z,5.40
2017-11-16T05:27:09.733Z,5.30
2017-11-16T05:29:37.600Z,5.30
2017-11-16T05:32:05.476Z,5.40
2017-11-16T05:34:33.338Z,5.40
2017-11-16T05:37:01.203Z,5.40
2017-11-16T05:39:29.070Z,5.50
2017-11-16T05:41:56.939Z,5.60
2017-11-16T05:44:24.907Z,5.70
2017-11-16T05:46:52.776Z,5.80
2017-11-16T05:49:20.641Z,5.70
2017-11-16T05:51:48.509Z,5.80
2017-11-16T05:54:16.376Z,5.80
2017-11-16T05:56:44.243Z,5.90
2017-11-16T05:59:12.111Z,6.00
2017-11-16T06:01:39.977Z,6.00
2017-11-16T06:04:07.845Z,6.00
2017-11-16T06:06:35.713Z,6.20
2017-11-16T06:09:03.684Z,6.20
2017-11-16T06:11:31.549Z,6.00
2017-11-16T06:13:59.416Z,6.00
2017-11-16T06:16:27.284Z,5.80
2017-11-16T06:18:55.152Z,5.70
2017-11-16T06:21:23.020Z,5.70
2017-11-16T06:23:50.925Z,5.60
2017-11-16T06:26:18.788Z,5.60
2017-11-16T06:28:46.656Z,5.70
2017-11-16T06:31:14.523Z,5.60
2017-11-16T06:33:42.391Z,5.60
2017-11-16T06:36:10.257Z,5.50
2017-11-16T06:38:38.125Z,5.50
2017-11-16T06:41:05.992Z,5.70
2017-11-16T06:43:33.859Z,5.80
2017-11-16T06:46:01.727Z,5.70
2017-11-16T06:48:29.593Z,5.70
2017-11-16T06:50:57.467Z,5.80
2017-11-16T06:53:25.330Z,5.90
2017-11-16T06:55:53.201Z,6.00
2017-11-16T06:58:21.065Z,6.00
2017-11-16T07:00:49.254Z,6.10
2017-11-16T07:03:17.827Z,6.30
2017-11-16T07:05:45.689Z,6.30
2017-11-16T07:08:13.558Z,6.10
2017-11-16T07:10:41.423Z,6.20
2017-11-16T07:13:09.291Z,6.20
2017-11-16T07:15:37.159Z,6.30
2017-11-16T07:18:05.026Z,6.40
2017-11-16T07:20:32.892Z,6.40
2017-11-16T07:23:00.760Z,6.30
2017-11-16T07:25:28.630Z,6.30
2017-11-16T07:27:56.494Z,6.30
2017-11-16T07:30:24.363Z,6.20
2017-11-16T07:32:52.229Z,6.10
2017-11-16T07:35:20.101Z,6.00
2017-11-16T07:37:47.963Z,6.00
2017-11-16T07:40:15.831Z,5.90
2017-11-16T07:42:43.697Z,6.00
2017-11-16T07:45:11.565Z,6.00
2017-11-16T07:47:39.535Z,5.90
2017-11-16T07:50:07.506Z,5.90
2017-11-16T07:52:35.381Z,5.90
2017-11-16T07:55:03.240Z,5.90
2017-11-16T07:57:31.107Z,6.00
2017-11-16T07:59:58.979Z,6.10
2017-11-16T08:02:26.842Z,6.20
2017-11-16T08:04:54.709Z,6.10
2017-11-16T08:07:22.589Z,6.20
2017-11-16T08:09:50.445Z,6.10
2017-11-16T08:12:18.311Z,6.00
2017-11-16T08:14:46.184Z,5.90
2017-11-16T08:17:14.048Z,5.90
2017-11-16T08:19:41.843Z,5.80
2017-11-16T08:22:10.496Z,5.80
2017-11-16T08:24:38.371Z,5.80
2017-11-16T08:27:06.231Z,5.80
2017-11-16T08:29:34.098Z,5.80
2017-11-16T08:32:01.966Z,5.70
2017-11-16T08:34:29.833Z,5.70
2017-11-16T08:36:57.701Z,5.70
2017-11-16T08:39:25.568Z,5.70
2017-11-16T08:41:53.435Z,5.70
2017-11-16T08:44:21.303Z,5.70
2017-11-16T08:46:49.273Z,5.50
2017-11-16T08:49:17.243Z,5.50
2017-11-16T08:51:45.226Z,5.50
2017-11-16T08:54:13.183Z,5.50
2017-11-16T08:56:41.050Z,5.50
2017-11-16T08:59:08.916Z,5.50
2017-11-16T09:01:36.784Z,5.50
2017-11-16T09:04:04.651Z,5.50
2017-11-16T09:06:32.518Z,5.60
2017-11-16T09:09:00.385Z,5.70
2017-11-16T09:11:28.253Z,5.60
2017-11-16T09:13:56.223Z,5.70
2017-11-16T09:16:24.089Z,5.60
2017-11-16T09:18:51.957Z,5.60
2017-11-16T09:21:19.927Z,5.60
2017-11-16T09:23:47.896Z,5.70
2017-11-16T09:26:15.866Z,5.90
2017-11-16T09:28:43.771Z,6.00
2017-11-16T09:31:12.420Z,6.00
2017-11-16T09:33:40.287Z,6.00
2017-11-16T09:36:08.155Z,6.10
2017-11-16T09:38:36.022Z,6.10
2017-11-16T09:41:03.896Z,6.20
2017-11-16T09:43:31.758Z,6.30
2017-11-16T09:45:59.624Z,6.40
2017-11-16T09:48:27.490Z,6.40
2017-11-16T09:50:55.358Z,6.50
2017-11-16T09:53:23.226Z,6.70
2017-11-16T09:55:51.099Z,6.70
2017-11-16T09:58:19.063Z,6.80
2017-11-16T10:00:46.931Z,6.90
2017-11-16T10:03:14.801Z,7.00
2017-11-16T10:05:42.667Z,7.00
2017-11-16T10:08:10.551Z,7.00
2017-11-16T10:10:39.226Z,6.80
2017-11-16T10:13:07.089Z,6.80
2017-11-16T10:15:34.957Z,6.80
2017-11-16T10:18:02.825Z,6.70
2017-11-16T10:20:30.698Z,6.60
2017-11-16T10:22:58.559Z,6.60
2017-11-16T10:25:26.429Z,6.60
2017-11-16T10:27:54.291Z,6.50
2017-11-16T10:30:22.164Z,6.60
2017-11-16T10:32:50.024Z,6.50
2017-11-16T10:35:17.893Z,6.40
2017-11-16T10:37:45.759Z,6.30
2017-11-16T10:40:13.625Z,6.30
2017-11-16T10:42:41.499Z,6.40
2017-11-16T10:45:09.368Z,6.40
2017-11-16T10:47:37.331Z,6.40
2017-11-16T10:50:05.194Z,6.50
2017-11-16T10:52:33.066Z,6.50
2017-11-16T10:55:00.939Z,6.40
2017-11-16T10:57:28.799Z,6.40
2017-11-16T10:59:56.676Z,6.40
2017-11-16T11:02:24.534Z,6.30
2017-11-16T11:04:52.401Z,6.20
2017-11-16T11:07:20.269Z,6.20
2017-11-16T11:09:48.137Z,6.10
2017-11-16T11:12:16.004Z,6.00
2017-11-16T11:14:43.870Z,5.90
2017-11-16T11:17:11.754Z,5.80
2017-11-16T11:19:40.424Z,5.60
2017-11-16T11:22:08.291Z,5.60
2017-11-16T11:24:36.160Z,5.60
2017-11-16T11:27:04.026Z,5.60
2017-11-16T11:29:31.895Z,5.70
2017-11-16T11:31:59.762Z,5.70
2017-11-16T11:34:27.629Z,5.60
2017-11-16T11:36:55.496Z,5.50
2017-11-16T11:39:23.363Z,5.40
2017-11-16T11:41:51.230Z,5.30
2017-11-16T11:44:19.097Z,5.20
2017-11-16T11:46:46.899Z,5.20
2017-11-16T11:49:15.549Z,5.30
2017-11-16T11:51:43.418Z,5.30
2017-11-16T11:54:11.284Z,5.30
2017-11-16T11:56:39.151Z,5.20
2017-11-16T11:59:07.018Z,5.30
2017-11-16T12:01:34.886Z,5.30
2017-11-16T12:04:02.860Z,5.20
2017-11-16T12:06:30.725Z,5.20
2017-11-16T12:08:58.591Z,5.10
2017-11-16T12:11:26.457Z,5.10
2017-11-16T12:13:54.327Z,5.20
2017-11-16T12:16:22.192Z,5.20
2017-11-16T12:18:50.058Z,5.40
2017-11-16T12:21:17.927Z,5.50
2017-11-16T12:23:45.795Z,5.40
2017-11-16T12:26:13.665Z,5.60
2017-11-16T12:28:41.532Z,5.70
2017-11-16T12:31:09.497Z,5.80
2017-11-16T12:33:37.467Z,5.90
2017-11-16T12:36:05.438Z,6.00
2017-11-16T12:38:33.407Z,6.10
2017-11-16T12:41:01.275Z,6.10
2017-11-16T12:43:29.141Z,6.10
2017-11-16T12:45:57.112Z,6.00
2017-11-16T12:48:24.979Z,5.90
2017-11-16T12:50:52.948Z,5.80
2017-11-16T12:53:20.817Z,5.80
2017-11-16T12:55:48.682Z,5.80
2017-11-16T12:58:16.550Z,5.80
2017-11-16T13:00:44.421Z,5.80
2017-11-16T13:03:12.286Z,5.70
2017-11-16T13:05:40.153Z,5.60
2017-11-16T13:08:08.020Z,5.40
2017-11-16T13:10:35.888Z,5.40
2017-11-16T13:13:03.758Z,5.40
2017-11-16T13:15:31.622Z,5.30
2017-11-16T13:17:59.494Z,5.20
2017-11-16T13:20:27.358Z,5.20
2017-11-16T13:22:55.231Z,5.20
2017-11-16T13:25:23.096Z,5.30
2017-11-16T13:27:50.965Z,5.40
2017-11-16T13:30:18.832Z,5.40
2017-11-16T13:32:46.698Z,5.50
2017-11-16T13:35:14.566Z,5.60
2017-11-16T13:37:42.430Z,5.70
2017-11-16T13:40:10.297Z,5.70
2017-11-16T13:42:38.162Z,5.70
2017-11-16T13:45:06.029Z,5.50
2017-11-16T13:47:33.897Z,5.50
2017-11-16T13:50:01.764Z,5.40
2017-11-16T13:52:29.631Z,5.40
2017-11-16T13:54:57.498Z,5.50
2017-11-16T13:57:25.365Z,5.60
2017-11-16T13:59:53.234Z,5.60
2017-11-16T14:02:21.105Z,5.60
2017-11-16T14:04:48.967Z,5.50
2017-11-16T14:07:16.834Z,5.50
2017-11-16T14:09:44.703Z,5.50
2017-11-16T14:12:12.568Z,5.50
2017-11-16T14:14:40.435Z,5.60
2017-11-16T14:17:08.304Z,5.70
2017-11-16T14:22:10.187Z,5.80
2017-11-16T14:24:38.052Z,5.70
2017-11-16T14:27:05.919Z,5.70
2017-11-16T14:29:33.785Z,5.70
2017-11-16T14:32:01.652Z,5.70
2017-11-16T14:34:29.519Z,5.80
2017-11-16T14:36:57.386Z,5.80
2017-11-16T14:39:25.261Z,5.80
2017-11-16T14:41:53.123Z,5.70
2017-11-16T14:44:20.989Z,5.60
2017-11-16T14:46:48.855Z,5.70
2017-11-16T14:49:16.736Z,5.60
2017-11-16T14:51:44.589Z,5.50
2017-11-16T14:54:12.459Z,5.40
2017-11-16T14:56:40.325Z,5.40
2017-11-16T14:59:08.192Z,5.30
2017-11-16T15:01:36.059Z,5.20
2017-11-16T15:04:03.856Z,5.10
2017-11-16T15:06:32.440Z,5.00
2017-11-16T15:09:01.094Z,5.00
2017-11-16T15:11:28.963Z,5.00
2017-11-16T15:13:56.830Z,5.00
2017-11-16T15:16:24.696Z,4.90
2017-11-16T15:18:52.562Z,4.90
2017-11-16T15:21:20.437Z,5.00
2017-11-16T15:23:48.298Z,5.10
2017-11-16T15:26:16.165Z,5.20
2017-11-16T15:28:44.036Z,5.20
2017-11-16T15:31:11.901Z,5.30
2017-11-16T15:33:39.770Z,5.40
2017-11-16T15:36:07.634Z,5.50
2017-11-16T15:38:35.502Z,5.50
2017-11-16T15:41:03.368Z,5.50
2017-11-16T15:43:31.237Z,5.40
2017-11-16T15:45:59.104Z,5.40
2017-11-16T15:48:26.902Z,5.40
2017-11-16T15:50:55.560Z,5.30
2017-11-16T15:53:23.423Z,5.30
2017-11-16T15:55:51.290Z,5.10
2017-11-16T15:58:19.177Z,5.00
2017-11-16T16:00:47.024Z,4.90
2017-11-16T16:03:14.893Z,4.90
2017-11-16T16:05:42.760Z,4.90
2017-11-16T16:08:10.626Z,4.80
2017-11-16T16:10:38.494Z,4.70
2017-11-16T16:13:06.361Z,4.70
2017-11-16T16:15:34.228Z,4.60
2017-11-16T16:18:02.096Z,4.50
2017-11-16T16:20:29.962Z,4.40
2017-11-16T16:22:57.831Z,4.40
2017-11-16T16:25:25.698Z,4.40
2017-11-16T16:27:53.566Z,4.40
2017-11-16T16:30:21.433Z,4.40
2017-11-16T16:32:49.305Z,4.40
2017-11-16T16:35:17.171Z,4.30
2017-11-16T16:37:45.037Z,4.40
2017-11-16T16:40:12.903Z,4.40
2017-11-16T16:42:40.775Z,4.40
2017-11-16T16:45:08.642Z,4.40
2017-11-16T16:47:36.509Z,4.40
2017-11-16T16:50:04.374Z,4.40
2017-11-16T16:52:32.239Z,4.30
2017-11-16T16:55:00.925Z,4.30
2017-11-16T16:57:28.791Z,4.30
2017-11-16T16:59:56.659Z,4.40
2017-11-16T17:02:24.563Z,4.30
2017-11-16T17:04:53.213Z,4.40
2017-11-16T17:07:21.080Z,4.40
2017-11-16T17:09:48.947Z,4.40
2017-11-16T17:12:16.817Z,4.30
2017-11-16T17:14:44.682Z,4.30
2017-11-16T17:17:12.550Z,4.20
2017-11-16T17:19:40.417Z,4.20
2017-11-16T17:22:08.284Z,4.20
2017-11-16T17:24:36.156Z,4.10
2017-11-16T17:27:04.018Z,4.10
2017-11-16T17:29:31.988Z,4.10
2017-11-16T17:31:59.855Z,4.10
2017-11-16T17:34:27.743Z,4.20
2017-11-16T17:36:55.594Z,4.20
2017-11-16T17:39:23.457Z,4.30
2017-11-16T17:41:51.325Z,4.30
2017-11-16T17:44:19.192Z,4.30
2017-11-16T17:46:47.066Z,4.30
2017-11-16T17:49:14.926Z,4.30
2017-11-16T17:51:42.795Z,4.30
2017-11-16T17:54:10.661Z,4.40
2017-11-16T17:56:38.530Z,4.30
2017-11-16T17:59:06.397Z,4.30
2017-11-16T18:01:34.263Z,4.30
2017-11-16T18:04:02.130Z,4.20
2017-11-16T18:06:29.998Z,4.10
2017-11-16T18:08:57.865Z,4.10
2017-11-16T18:11:25.732Z,4.20
2017-11-16T18:13:53.599Z,4.20
2017-11-16T18:16:21.467Z,4.20
2017-11-16T18:18:49.335Z,4.30
2017-11-16T18:21:17.204Z,4.30
2017-11-16T18:23:45.069Z,4.30
2017-11-16T18:26:12.936Z,4.30
2017-11-16T18:28:40.802Z,4.30
2017-11-16T18:31:08.670Z,4.30
2017-11-16T18:33:36.538Z,4.30
2017-11-16T18:36:04.406Z,4.30
2017-11-16T18:38:32.275Z,4.30
2017-11-16T18:41:00.138Z,4.30
2017-11-16T18:43:28.009Z,4.20
2017-11-16T18:45:55.874Z,4.10
2017-11-16T18:48:23.740Z,4.10
2017-11-16T18:50:51.609Z,4.10
2017-11-16T18:53:19.475Z,4.00
2017-11-16T18:55:47.343Z,4.10
2017-11-16T18:58:15.221Z,4.10
2017-11-16T19:00:43.078Z,4.10
2017-11-16T19:03:10.949Z,4.10
2017-11-16T19:05:38.813Z,4.10
2017-11-16T19:08:06.680Z,4.10
2017-11-16T19:10:34.547Z,4.20
2017-11-16T19:13:02.418Z,4.20
2017-11-16T19:15:30.282Z,4.20
2017-11-16T19:17:58.150Z,4.10
2017-11-16T19:20:26.016Z,4.10
2017-11-16T19:25:27.791Z,4.20
2017-11-16T19:27:55.661Z,4.20
2017-11-16T19:30:23.526Z,4.20
2017-11-16T19:32:51.402Z,4.20
2017-11-16T19:35:20.081Z,4.30
2017-11-16T19:37:47.949Z,4.20
2017-11-16T19:40:15.815Z,4.30
2017-11-16T19:42:43.684Z,4.30
2017-11-16T19:45:11.551Z,4.40
2017-11-16T19:47:39.417Z,4.40
2017-11-16T19:50:07.289Z,4.40
2017-11-16T19:52:35.155Z,4.40
2017-11-16T19:55:03.024Z,4.40
2017-11-16T19:57:30.888Z,4.50
2017-11-16T19:59:58.759Z,4.50
2017-11-16T20:02:26.559Z,4.50
2017-11-16T20:04:55.210Z,4.30
2017-11-16T20:07:23.077Z,4.30
2017-11-16T20:09:50.941Z,4.40
2017-11-16T20:12:18.807Z,4.30
2017-11-16T20:14:46.677Z,4.30
2017-11-16T20:17:14.542Z,4.40
2017-11-16T20:19:42.409Z,4.40
2017-11-16T20:22:10.276Z,4.40
2017-11-16T20:24:38.143Z,4.40
2017-11-16T20:27:06.012Z,4.50
2017-11-16T20:29:33.982Z,4.50
2017-11-16T20:32:01.852Z,4.50
2017-11-16T20:34:29.716Z,4.50
2017-11-16T20:37:15.402Z,4.50
2017-11-16T20:39:59.857Z,4.50
2017-11-16T20:42:33.187Z,4.50
2017-11-16T20:45:17.504Z,4.40
2017-11-16T20:47:46.192Z,4.40
2017-11-16T20:50:21.841Z,4.40
2017-11-16T20:53:01.588Z,4.40
2017-11-16T20:55:40.310Z,4.30
2017-11-16T20:58:08.179Z,4.30
2017-11-16T21:00:36.147Z,4.30
2017-11-16T21:03:04.014Z,4.30
2017-11-16T21:05:31.884Z,4.30
2017-11-16T21:07:59.748Z,4.30
2017-11-16T21:10:28.707Z,4.40
2017-11-16T21:12:56.712Z,4.40
2017-11-16T21:15:24.582Z,4.40
2017-11-16T21:17:53.979Z,4.30
2017-11-16T21:20:22.670Z,4.30
2017-11-16T21:22:50.537Z,4.30
2017-11-16T21:25:18.434Z,4.20
2017-11-16T21:27:47.028Z,4.30
2017-11-16T21:30:15.673Z,4.30
2017-11-16T21:32:43.544Z,4.30
2017-11-16T21:35:11.411Z,4.40
2017-11-16T21:37:39.278Z,4.40
2017-11-16T21:40:07.151Z,4.40
2017-11-16T21:42:35.012Z,4.40
2017-11-16T21:45:02.881Z,4.40
2017-11-16T21:47:30.850Z,4.40
2017-11-16T21:50:00.151Z,4.40
2017-11-16T21:52:28.016Z,4.40
2017-11-16T21:54:55.883Z,4.30
2017-11-16T21:57:23.750Z,4.40
2017-11-16T21:59:53.718Z,4.40
2017-11-16T22:02:29.501Z,4.50
2017-11-16T22:04:59.581Z,4.50
2017-11-16T22:07:28.327Z,4.50
2017-11-16T22:09:56.198Z,4.50
2017-11-16T22:12:24.062Z,4.40
2017-11-16T22:14:52.928Z,4.40
2017-11-16T22:17:20.822Z,4.40
2017-11-16T22:19:48.689Z,4.50
2017-11-16T22:22:16.559Z,4.60
2017-11-16T22:24:46.143Z,4.70
2017-11-16T22:27:14.135Z,4.80
2017-11-16T22:29:44.251Z,4.80
2017-11-16T22:35:05.692Z,4.80
2017-11-16T22:37:33.558Z,4.80
2017-11-16T22:40:01.363Z,4.80
2017-11-16T22:42:30.009Z,4.70
2017-11-16T22:44:57.877Z,4.70
2017-11-16T22:47:25.744Z,4.60
2017-11-16T22:49:53.612Z,4.60
2017-11-16T22:52:21.479Z,4.60
2017-11-16T22:54:49.350Z,4.50
2017-11-16T22:57:17.214Z,4.50
2017-11-16T22:59:45.017Z,4.50
2017-11-16T23:02:13.665Z,4.60
2017-11-16T23:04:41.532Z,4.60
2017-11-16T23:07:09.403Z,4.60
2017-11-16T23:09:37.269Z,4.60
2017-11-16T23:12:05.136Z,4.60
2017-11-16T23:14:33.003Z,4.60
2017-11-16T23:17:00.874Z,4.50
2017-11-16T23:19:28.742Z,4.40
2017-11-16T23:21:56.605Z,4.40
2017-11-16T23:24:24.473Z,4.40
2017-11-16T23:26:53.261Z,4.40
2017-11-16T23:29:21.130Z,4.40
2017-11-16T23:31:48.995Z,4.40
2017-11-16T23:34:16.863Z,4.40
2017-11-16T23:36:44.728Z,4.40
2017-11-16T23:39:12.597Z,4.30
2017-11-16T23:41:40.464Z,4.30
2017-11-16T23:44:08.343Z,4.30
2017-11-16T23:46:36.916Z,4.30
2017-11-16T23:49:04.783Z,4.30
2017-11-16T23:51:32.651Z,4.40
2017-11-16T23:54:00.518Z,4.40
2017-11-16T23:56:28.384Z,4.50
2017-11-16T23:58:56.251Z,4.50
